Time;durP1;ratioP1;P1;durP2;ratioP2;P2;SDS_P1;SDS_P2;PMS_P1;PMS_P2;Temp;Humidity;BMP_temperature;BMP_pressure;BME280_temperature;BME280_humidity;BME280_pressure;Samples;Min_cycle;Max_cycle;Signal;HPM_P1;HPM_P2
2023/06/09 00:01:39;;;;;;;15.10;12.35;;;27.50;99.90;;;;;;1842215;76;21164;-88
2023/06/09 00:04:08;;;;;;;16.85;11.85;;;27.60;99.90;;;;;;1852103;76;21078;-88
2023/06/09 00:06:41;;;;;;;17.50;12.25;;;27.50;99.90;;;;;;1850900;76;21134;-87
2023/06/09 00:09:13;;;;;;;22.10;12.45;;;27.60;99.90;;;;;;1821342;77;21249;-89
2023/06/09 00:11:45;;;;;;;16.87;12.35;;;27.60;99.90;;;;;;1817246;77;21179;-87
2023/06/09 00:14:17;;;;;;;15.70;11.78;;;27.60;99.90;;;;;;1819115;77;21496;-88
2023/06/09 00:16:48;;;;;;;15.18;12.28;;;27.60;99.90;;;;;;1818013;77;21174;-89
2023/06/09 00:19:22;;;;;;;17.45;12.93;;;27.50;99.90;;;;;;1829344;77;21171;-88
2023/06/09 00:21:53;;;;;;;17.40;13.05;;;27.50;99.90;;;;;;1851425;76;21091;-87
2023/06/09 00:24:25;;;;;;;15.50;12.50;;;27.50;99.90;;;;;;1850416;77;21092;-88
2023/06/09 00:26:56;;;;;;;16.30;12.07;;;27.50;99.90;;;;;;1849863;77;21143;-88
2023/06/09 00:29:31;;;;;;;20.00;13.98;;;27.50;99.90;;;;;;1854776;76;21134;-88
2023/06/09 00:32:02;;;;;;;22.17;13.15;;;27.50;99.90;;;;;;1854747;76;21150;-75
2023/06/09 00:34:36;;;;;;;17.12;12.45;;;27.60;99.90;;;;;;1842598;76;21668;-76
2023/06/09 00:37:07;;;;;;;17.37;11.43;;;27.60;99.90;;;;;;1842820;77;21411;-77
2023/06/09 00:39:39;;;;;;;19.17;13.10;;;27.60;99.90;;;;;;1844600;76;21276;-73
2023/06/09 00:42:11;;;;;;;19.17;12.37;;;27.60;99.90;;;;;;1831579;76;21204;-74
2023/06/09 00:44:47;;;;;;;20.72;13.83;;;27.70;99.90;;;;;;1842570;76;21225;-73
2023/06/09 00:47:15;;;;;;;17.85;14.05;;;27.70;99.90;;;;;;1789420;79;21226;-73
2023/06/09 00:49:47;;;;;;;18.60;12.75;;;27.70;99.90;;;;;;1837830;77;21386;-76
2023/06/09 00:52:18;;;;;;;19.37;12.50;;;27.80;99.90;;;;;;1849406;76;21184;-76
2023/06/09 00:54:52;;;;;;;14.00;12.00;;;27.80;99.90;;;;;;1830599;76;21222;-76
2023/06/09 00:57:24;;;;;;;17.10;12.73;;;27.80;99.90;;;;;;1846536;76;21641;-75
2023/06/09 00:59:57;;;;;;;17.85;12.58;;;27.80;99.90;;;;;;1844122;76;21963;-75
2023/06/09 01:02:30;;;;;;;19.45;11.45;;;27.90;99.90;;;;;;1825644;76;21271;-74
2023/06/09 01:05:03;;;;;;;24.72;14.25;;;27.80;99.90;;;;;;1822599;76;21204;-73
2023/06/09 01:07:54;;;;;;;19.65;13.30;;;27.90;99.90;;;;;;1827783;76;21240;-73
2023/06/09 01:10:44;;;;;;;17.05;12.23;;;27.90;99.90;;;;;;1844820;76;21124;-73
2023/06/09 01:13:29;;;;;;;28.42;12.25;;;27.90;99.90;;;;;;1843865;76;21103;-73
2023/06/09 01:16:06;;;;;;;25.23;12.80;;;28.00;99.90;;;;;;1843405;76;21490;-73
2023/06/09 01:18:42;;;;;;;20.75;11.83;;;28.00;99.90;;;;;;1843711;76;21178;-73
2023/06/09 01:21:35;;;;;;;18.20;13.13;;;28.00;99.90;;;;;;1846485;77;21863;-73
2023/06/09 01:24:24;;;;;;;28.47;14.35;;;28.00;99.90;;;;;;1811520;77;21197;-72
2023/06/09 01:27:01;;;;;;;21.23;12.82;;;28.10;99.90;;;;;;1819634;77;21123;-74
2023/06/09 01:29:36;;;;;;;16.85;11.48;;;28.10;99.90;;;;;;1807109;78;21154;-73
2023/06/09 01:32:09;;;;;;;16.32;11.28;;;28.10;99.90;;;;;;1843985;76;21122;-71
2023/06/09 01:34:44;;;;;;;16.37;11.20;;;28.20;99.90;;;;;;1838905;76;21233;-75
2023/06/09 01:37:17;;;;;;;18.15;12.07;;;28.20;99.90;;;;;;1814403;77;21159;-73
2023/06/09 01:39:50;;;;;;;17.82;10.55;;;28.20;99.90;;;;;;1817187;78;21488;-74
2023/06/09 01:42:21;;;;;;;11.80;10.00;;;28.30;99.90;;;;;;1820847;78;21138;-74
2023/06/09 01:44:53;;;;;;;19.02;10.65;;;28.30;99.90;;;;;;1839581;76;21184;-78
2023/06/09 01:47:25;;;;;;;22.25;11.38;;;28.30;99.90;;;;;;1805120;78;21139;-77
2023/06/09 01:50:14;;;;;;;15.35;10.00;;;28.40;99.90;;;;;;1809376;78;21197;-77
2023/06/09 01:52:48;;;;;;;27.40;11.05;;;28.50;99.90;;;;;;1803352;77;21681;-76
2023/06/09 01:55:31;;;;;;;35.65;12.95;;;28.50;99.90;;;;;;1842753;76;21220;-74
2023/06/09 01:58:12;;;;;;;26.70;10.72;;;28.50;99.90;;;;;;1844147;76;21190;-74
2023/06/09 02:00:42;;;;;;;16.87;9.35;;;28.60;99.90;;;;;;1845283;76;21532;-78
2023/06/09 02:03:16;;;;;;;14.83;8.78;;;28.70;99.90;;;;;;1846322;76;21209;-76
2023/06/09 02:05:48;;;;;;;27.77;12.10;;;28.70;99.90;;;;;;1836449;77;21125;-76
2023/06/09 02:08:21;;;;;;;30.25;9.73;;;28.80;99.90;;;;;;1845287;76;21140;-76
2023/06/09 02:10:54;;;;;;;20.57;9.10;;;28.80;99.90;;;;;;1843365;76;21374;-78
2023/06/09 02:13:27;;;;;;;18.67;8.63;;;28.90;99.90;;;;;;1848280;76;21159;-77
2023/06/09 02:15:58;;;;;;;23.35;9.83;;;29.00;99.90;;;;;;1814840;76;21373;-75
2023/06/09 02:18:32;;;;;;;13.50;8.03;;;29.10;99.90;;;;;;1846038;76;21551;-77
2023/06/09 02:21:02;;;;;;;9.73;7.53;;;29.20;99.90;;;;;;1840817;76;21158;-76
2023/06/09 02:23:34;;;;;;;19.00;8.55;;;29.40;99.90;;;;;;1835161;76;21478;-77
2023/06/09 02:26:06;;;;;;;15.18;8.18;;;29.60;99.90;;;;;;1848727;76;21650;-75
2023/06/09 02:28:37;;;;;;;11.55;7.75;;;29.80;99.90;;;;;;1800088;78;21227;-77
2023/06/09 02:31:09;;;;;;;10.63;7.95;;;30.00;99.90;;;;;;1833294;77;21161;-74
2023/06/09 02:33:40;;;;;;;21.17;8.43;;;30.30;99.90;;;;;;1819053;77;21222;-76
2023/06/09 02:36:12;;;;;;;17.37;8.13;;;30.40;99.90;;;;;;1824371;77;21146;-74
2023/06/09 02:38:45;;;;;;;12.82;8.88;;;30.60;99.90;;;;;;1844908;76;21727;-75
2023/06/09 02:41:16;;;;;;;17.60;8.75;;;30.70;99.90;;;;;;1845202;76;21664;-77
2023/06/09 02:43:48;;;;;;;14.90;7.78;;;30.80;99.90;;;;;;1848811;76;21336;-76
2023/06/09 02:46:22;;;;;;;11.28;7.45;;;30.80;99.90;;;;;;1858384;76;21212;-75
2023/06/09 02:48:53;;;;;;;10.23;7.40;;;30.90;99.90;;;;;;1803324;78;21165;-74
2023/06/09 02:51:25;;;;;;;10.58;7.35;;;30.90;99.90;;;;;;1817071;77;21889;-76
2023/06/09 02:53:56;;;;;;;12.58;8.25;;;30.80;99.90;;;;;;1809589;77;21513;-74
2023/06/09 02:56:27;;;;;;;12.78;7.67;;;30.90;99.90;;;;;;1818890;77;21779;-73
2023/06/09 02:58:59;;;;;;;13.98;8.40;;;30.80;99.90;;;;;;1819875;77;21245;-75
2023/06/09 03:01:34;;;;;;;17.15;9.05;;;30.90;99.90;;;;;;1840916;76;21168;-74
2023/06/09 03:04:07;;;;;;;25.00;9.65;;;30.90;99.90;;;;;;1847903;76;21147;-75
2023/06/09 03:06:43;;;;;;;28.80;9.20;;;31.00;99.90;;;;;;1840075;76;21216;-75
2023/06/09 03:09:11;;;;;;;20.20;9.43;;;31.00;99.90;;;;;;1820849;77;21096;-75
2023/06/09 03:11:43;;;;;;;15.10;7.67;;;31.00;99.90;;;;;;1819280;77;21722;-74
2023/06/09 03:14:14;;;;;;;10.43;6.85;;;31.20;99.90;;;;;;1845098;76;21188;-73
2023/06/09 03:16:46;;;;;;;11.25;7.62;;;31.20;99.90;;;;;;1858525;76;21150;-75
2023/06/09 03:19:18;;;;;;;36.77;9.63;;;31.20;99.90;;;;;;1863159;76;21185;-74
2023/06/09 03:21:57;;;;;;;56.40;12.90;;;31.20;99.90;;;;;;1827622;77;21148;-75
2023/06/09 03:24:25;;;;;;;29.23;9.50;;;31.20;99.90;;;;;;1819524;78;21662;-76
2023/06/09 03:26:57;;;;;;;16.60;8.30;;;31.20;99.90;;;;;;1842161;76;21636;-74
2023/06/09 03:29:31;;;;;;;11.00;7.67;;;31.20;99.90;;;;;;1844542;76;21206;-76
2023/06/09 03:32:02;;;;;;;14.53;6.97;;;31.20;99.90;;;;;;1850766;76;21130;-74
2023/06/09 03:34:34;;;;;;;20.60;7.85;;;31.10;99.90;;;;;;1807876;77;21497;-74
2023/06/09 03:37:09;;;;;;;29.12;8.33;;;31.10;99.90;;;;;;1849519;76;21612;-76
2023/06/09 03:39:38;;;;;;;27.13;10.38;;;30.90;99.90;;;;;;1832210;76;21424;-74
2023/06/09 03:42:10;;;;;;;16.42;7.22;;;30.90;99.90;;;;;;1837531;76;21618;-74
2023/06/09 03:44:43;;;;;;;14.80;7.90;;;30.90;99.90;;;;;;1816986;77;21190;-76
2023/06/09 03:47:14;;;;;;;15.08;8.13;;;30.90;99.90;;;;;;1818796;77;21202;-76
2023/06/09 03:49:46;;;;;;;12.40;7.25;;;30.90;99.90;;;;;;1816138;77;21163;-75
2023/06/09 03:52:17;;;;;;;11.35;7.47;;;30.90;99.90;;;;;;1831469;77;21126;-75
2023/06/09 03:54:49;;;;;;;11.63;7.17;;;30.90;99.90;;;;;;1807819;77;21568;-75
2023/06/09 03:57:20;;;;;;;27.93;9.95;;;30.90;99.90;;;;;;1812669;78;21422;-74
2023/06/09 03:59:52;;;;;;;14.83;7.87;;;30.90;99.90;;;;;;1823283;77;21384;-74
2023/06/09 04:02:23;;;;;;;13.22;7.60;;;30.90;99.90;;;;;;1813424;78;21143;-75
2023/06/09 04:04:55;;;;;;;13.95;7.85;;;30.90;99.90;;;;;;1840127;76;21141;-75
2023/06/09 04:07:29;;;;;;;16.05;8.18;;;30.90;99.90;;;;;;1823775;78;21193;-73
2023/06/09 04:09:58;;;;;;;17.27;8.43;;;31.00;99.90;;;;;;1801442;78;21448;-74
2023/06/09 04:12:30;;;;;;;10.30;7.28;;;31.00;99.90;;;;;;1808695;77;21917;-73
2023/06/09 04:15:01;;;;;;;26.33;9.30;;;31.00;99.90;;;;;;1802933;77;21555;-72
2023/06/09 04:17:34;;;;;;;14.87;8.70;;;30.90;99.90;;;;;;1844491;76;21232;-77
2023/06/09 04:20:12;;;;;;;11.48;8.15;;;30.90;99.90;;;;;;1821938;77;21163;-76
2023/06/09 04:22:50;;;;;;;14.20;7.90;;;30.90;99.90;;;;;;1801202;78;21249;-74
2023/06/09 04:25:26;;;;;;;11.38;7.80;;;30.90;99.90;;;;;;1800227;77;21165;-73
2023/06/09 04:28:00;;;;;;;14.63;8.05;;;30.90;99.90;;;;;;1849460;76;21139;-75
2023/06/09 04:30:31;;;;;;;10.88;7.62;;;31.00;99.90;;;;;;1861064;76;21128;-75
2023/06/09 04:33:03;;;;;;;59.05;12.80;;;31.00;99.90;;;;;;1850785;76;21629;-75
2023/06/09 04:35:35;;;;;;;15.65;8.40;;;31.00;99.90;;;;;;1847977;76;21168;-75
2023/06/09 04:38:07;;;;;;;10.82;7.47;;;31.00;99.90;;;;;;1846898;76;21140;-76
2023/06/09 04:40:39;;;;;;;15.45;7.87;;;31.00;99.90;;;;;;1846469;76;21466;-75
2023/06/09 04:43:11;;;;;;;24.23;10.15;;;31.10;99.90;;;;;;1822001;77;21392;-76
2023/06/09 04:45:43;;;;;;;11.53;7.95;;;31.10;99.90;;;;;;1831534;76;21112;-74
2023/06/09 04:48:14;;;;;;;10.43;8.38;;;31.20;99.90;;;;;;1846064;76;21223;-74
2023/06/09 04:50:47;;;;;;;8.95;7.92;;;31.20;99.90;;;;;;1860765;76;21111;-74
2023/06/09 04:53:19;;;;;;;10.00;8.08;;;31.20;99.90;;;;;;1826125;77;21698;-74
2023/06/09 04:55:52;;;;;;;13.00;8.38;;;31.20;99.90;;;;;;1802541;77;21174;-75
2023/06/09 04:58:23;;;;;;;11.83;8.40;;;31.40;99.90;;;;;;1857989;76;21504;-73
2023/06/09 05:00:57;;;;;;;15.95;9.75;;;31.50;99.90;;;;;;1840499;76;21197;-76
2023/06/09 05:03:28;;;;;;;21.93;11.43;;;31.50;99.90;;;;;;1856865;76;21119;-75
2023/06/09 05:06:00;;;;;;;14.55;10.32;;;31.50;99.90;;;;;;1852014;76;21373;-73
2023/06/09 05:08:32;;;;;;;14.33;10.28;;;31.40;99.90;;;;;;1851953;76;21139;-73
2023/06/09 05:11:04;;;;;;;14.10;9.98;;;31.40;99.90;;;;;;1872098;76;21112;-72
2023/06/09 05:13:37;;;;;;;14.93;9.50;;;31.40;99.90;;;;;;1852625;76;21195;-75
2023/06/09 05:16:15;;;;;;;17.00;9.65;;;31.50;99.90;;;;;;1855017;76;21197;-74
2023/06/09 05:18:46;;;;;;;13.85;8.83;;;31.50;99.90;;;;;;1856244;76;21357;-75
2023/06/09 05:21:18;;;;;;;13.35;8.33;;;31.60;99.90;;;;;;1850916;76;21125;-75
2023/06/09 05:23:49;;;;;;;9.88;8.23;;;31.60;99.90;;;;;;1860348;76;22073;-75
2023/06/09 05:26:21;;;;;;;9.95;7.95;;;31.60;99.90;;;;;;1842348;76;21904;-74
2023/06/09 05:28:52;;;;;;;10.23;8.25;;;31.70;99.90;;;;;;1820571;77;21146;-76
2023/06/09 05:31:24;;;;;;;12.47;6.85;;;31.80;99.90;;;;;;1848593;76;21172;-74
2023/06/09 05:33:55;;;;;;;14.68;7.78;;;31.90;99.90;;;;;;1842458;76;21856;-74
2023/06/09 05:36:26;;;;;;;12.95;7.80;;;32.00;99.90;;;;;;1817506;78;21471;-74
2023/06/09 05:38:58;;;;;;;9.48;7.12;;;32.00;99.90;;;;;;1853997;76;21385;-76
2023/06/09 05:41:32;;;;;;;9.68;8.20;;;32.00;99.80;;;;;;1858811;76;21113;-73
2023/06/09 05:44:04;;;;;;;9.25;7.15;;;32.10;99.90;;;;;;1852739;76;21258;-74
2023/06/09 05:46:39;;;;;;;12.18;7.62;;;32.10;99.90;;;;;;1849312;76;21111;-73
2023/06/09 05:49:10;;;;;;;9.65;6.97;;;32.10;99.90;;;;;;1871281;76;21168;-74
2023/06/09 05:51:41;;;;;;;8.80;6.90;;;32.00;99.50;;;;;;1846348;76;21146;-73
2023/06/09 05:54:13;;;;;;;12.00;7.80;;;32.00;99.70;;;;;;1837377;76;21791;-74
2023/06/09 05:56:48;;;;;;;13.72;8.13;;;31.90;99.90;;;;;;1820428;77;21190;-75
2023/06/09 05:59:20;;;;;;;14.93;8.70;;;31.90;99.90;;;;;;1821118;78;21167;-75
2023/06/09 06:01:52;;;;;;;13.22;8.88;;;31.80;99.90;;;;;;1815912;77;21146;-73
2023/06/09 06:04:23;;;;;;;11.78;8.83;;;31.60;99.90;;;;;;1805979;78;21102;-74
2023/06/09 06:06:55;;;;;;;12.33;8.10;;;31.50;99.90;;;;;;1828728;77;21154;-74
2023/06/09 06:09:26;;;;;;;14.83;8.05;;;31.40;99.90;;;;;;1824395;78;21115;-75
2023/06/09 06:11:57;;;;;;;13.35;9.08;;;31.40;99.90;;;;;;1845974;76;21131;-75
2023/06/09 06:14:29;;;;;;;19.10;9.90;;;31.30;99.90;;;;;;1843156;76;21131;-73
2023/06/09 06:17:00;;;;;;;13.90;9.30;;;31.20;99.90;;;;;;1838787;76;21261;-73
2023/06/09 06:19:31;;;;;;;14.33;8.80;;;31.20;99.90;;;;;;1838117;76;21150;-73
2023/06/09 06:22:03;;;;;;;11.75;8.55;;;31.10;99.90;;;;;;1840414;76;21630;-75
2023/06/09 06:24:35;;;;;;;11.70;8.40;;;31.10;99.90;;;;;;1815727;77;21148;-75
2023/06/09 06:27:06;;;;;;;15.78;9.00;;;31.10;99.90;;;;;;1816261;78;21457;-74
2023/06/09 06:29:43;;;;;;;24.27;8.98;;;31.00;99.90;;;;;;1818070;78;21167;-75
2023/06/09 06:32:11;;;;;;;10.93;7.10;;;31.10;99.90;;;;;;1834822;76;21230;-75
2023/06/09 06:34:42;;;;;;;10.30;7.53;;;31.10;99.90;;;;;;1842446;76;21159;-74
2023/06/09 06:37:14;;;;;;;19.57;8.50;;;31.10;99.90;;;;;;1814065;77;21178;-75
2023/06/09 06:39:45;;;;;;;21.90;8.83;;;31.10;99.90;;;;;;1807414;77;21154;-76
2023/06/09 06:42:17;;;;;;;19.37;8.70;;;31.10;99.90;;;;;;1837182;76;21214;-75
2023/06/09 06:44:48;;;;;;;19.73;7.83;;;31.10;99.90;;;;;;1839784;76;21145;-76
2023/06/09 06:47:19;;;;;;;13.03;7.60;;;31.20;99.90;;;;;;1845523;76;21142;-75
2023/06/09 06:49:52;;;;;;;13.68;8.68;;;31.20;99.90;;;;;;1852149;76;21221;-74
2023/06/09 06:52:24;;;;;;;14.15;8.10;;;31.30;99.90;;;;;;1844950;76;21124;-76
2023/06/09 06:54:55;;;;;;;14.10;8.18;;;31.30;99.90;;;;;;1850125;76;21181;-76
2023/06/09 06:57:27;;;;;;;10.43;7.42;;;31.30;99.90;;;;;;1851490;76;21131;-76
2023/06/09 06:59:59;;;;;;;12.88;7.47;;;31.40;99.90;;;;;;1842481;76;21511;-75
2023/06/09 07:02:33;;;;;;;14.55;8.28;;;31.40;99.90;;;;;;1811710;78;21151;-75
2023/06/09 07:05:06;;;;;;;12.60;8.68;;;31.50;99.90;;;;;;1810000;78;21221;-75
2023/06/09 07:07:37;;;;;;;9.73;8.33;;;31.50;99.90;;;;;;1815357;78;21195;-73
2023/06/09 07:10:09;;;;;;;10.78;8.75;;;31.50;99.90;;;;;;1817805;77;21178;-73
2023/06/09 07:12:41;;;;;;;12.88;8.08;;;31.50;99.90;;;;;;1849716;76;21379;-75
2023/06/09 07:15:13;;;;;;;13.00;7.75;;;31.60;99.90;;;;;;1855199;76;21407;-76
2023/06/09 07:17:45;;;;;;;14.40;7.80;;;31.60;99.90;;;;;;1847761;76;21887;-75
2023/06/09 07:20:17;;;;;;;16.32;7.90;;;31.50;99.90;;;;;;1842702;76;21135;-75
2023/06/09 07:22:51;;;;;;;12.93;8.00;;;31.50;99.90;;;;;;1856216;76;21154;-75
2023/06/09 07:25:21;;;;;;;28.35;9.28;;;31.50;99.90;;;;;;1816882;79;21217;-75
2023/06/09 07:27:52;;;;;;;10.38;7.25;;;31.60;99.90;;;;;;1797216;78;21501;-75
2023/06/09 07:30:23;;;;;;;10.08;7.45;;;31.60;99.90;;;;;;1805589;78;21210;-74
2023/06/09 07:32:55;;;;;;;9.33;7.15;;;31.70;99.90;;;;;;1817510;78;21841;-75
2023/06/09 07:35:26;;;;;;;12.88;8.15;;;31.60;99.10;;;;;;1809089;79;21180;-75
2023/06/09 07:37:58;;;;;;;12.93;8.15;;;31.60;99.30;;;;;;1818841;78;21314;-75
2023/06/09 07:40:29;;;;;;;18.87;10.08;;;31.60;99.50;;;;;;1809318;78;21218;-75
2023/06/09 07:43:01;;;;;;;11.10;6.97;;;31.60;99.00;;;;;;1839011;76;21230;-76
2023/06/09 07:45:35;;;;;;;9.83;5.67;;;31.70;98.40;;;;;;1842556;77;21580;-74
2023/06/09 07:48:06;;;;;;;19.27;8.40;;;31.70;98.00;;;;;;1797537;78;21254;-75
2023/06/09 07:50:38;;;;;;;20.17;6.37;;;31.70;97.70;;;;;;1856351;76;21150;-75
2023/06/09 07:53:10;;;;;;;34.35;8.40;;;31.70;97.40;;;;;;1818061;77;21196;-75
2023/06/09 07:55:43;;;;;;;9.45;6.70;;;31.70;96.80;;;;;;1817078;77;21131;-75
2023/06/09 07:58:14;;;;;;;12.30;6.50;;;31.70;96.90;;;;;;1806590;78;21191;-75
2023/06/09 08:00:46;;;;;;;12.45;7.55;;;31.70;96.50;;;;;;1816208;77;21195;-74
2023/06/09 08:03:17;;;;;;;12.40;6.58;;;31.70;96.80;;;;;;1819035;77;21205;-76
2023/06/09 08:05:49;;;;;;;9.08;6.35;;;31.70;95.90;;;;;;1815264;77;21428;-74
2023/06/09 08:08:25;;;;;;;16.48;6.72;;;31.60;95.50;;;;;;1820684;77;21201;-76
2023/06/09 08:10:56;;;;;;;21.17;6.92;;;31.60;96.10;;;;;;1814988;77;21125;-75
2023/06/09 08:13:30;;;;;;;39.67;9.65;;;31.60;96.20;;;;;;1847628;76;21131;-76
2023/06/09 08:16:01;;;;;;;25.68;9.38;;;31.60;96.60;;;;;;1785098;78;21482;-74
2023/06/09 08:18:33;;;;;;;27.52;9.30;;;31.60;97.10;;;;;;1848691;77;21927;-75
2023/06/09 08:21:05;;;;;;;23.62;9.48;;;31.60;97.30;;;;;;1849541;77;21119;-75
2023/06/09 08:23:36;;;;;;;17.15;8.28;;;31.60;97.50;;;;;;1845343;77;21141;-74
2023/06/09 08:26:07;;;;;;;15.43;7.65;;;31.60;97.50;;;;;;1842903;76;21257;-76
2023/06/09 08:28:41;;;;;;;45.58;11.40;;;31.60;97.80;;;;;;1843902;76;21127;-75
2023/06/09 08:31:12;;;;;;;50.25;14.00;;;31.60;97.90;;;;;;1845101;76;21248;-74
2023/06/09 08:33:44;;;;;;;13.85;7.95;;;31.60;98.20;;;;;;1847759;76;21122;-75
2023/06/09 08:36:16;;;;;;;11.65;7.83;;;31.60;98.30;;;;;;1814842;77;21896;-74
2023/06/09 08:38:47;;;;;;;13.78;8.13;;;31.60;98.40;;;;;;1810532;78;21942;-75
2023/06/09 08:41:27;;;;;;;41.00;10.65;;;31.50;98.40;;;;;;1821017;77;21176;-74
2023/06/09 08:43:59;;;;;;;18.12;6.03;;;31.50;98.90;;;;;;1823547;77;21150;-72
2023/06/09 08:46:33;;;;;;;16.12;5.67;;;31.50;99.00;;;;;;1820746;77;21833;-73
2023/06/09 08:49:04;;;;;;;31.68;6.55;;;31.40;99.00;;;;;;1826363;78;21123;-72
2023/06/09 08:51:37;;;;;;;11.38;4.47;;;31.20;98.90;;;;;;1831197;77;21172;-74
2023/06/09 08:54:08;;;;;;;13.28;4.67;;;31.10;99.40;;;;;;1838397;76;21137;-75
2023/06/09 08:56:40;;;;;;;13.88;5.40;;;30.90;99.60;;;;;;1853533;76;21182;-73
2023/06/09 08:59:12;;;;;;;23.95;6.92;;;30.70;99.90;;;;;;1857255;76;21230;-72
2023/06/09 09:01:43;;;;;;;11.35;5.37;;;30.70;99.90;;;;;;1854034;76;21100;-74
2023/06/09 09:04:15;;;;;;;9.13;5.17;;;30.60;99.90;;;;;;1850510;76;21160;-74
2023/06/09 09:06:46;;;;;;;18.85;5.92;;;30.50;99.90;;;;;;1848651;76;21122;-75
2023/06/09 09:09:18;;;;;;;9.35;6.45;;;30.40;99.90;;;;;;1836908;77;21156;-72
2023/06/09 09:11:54;;;;;;;11.25;5.72;;;30.30;99.90;;;;;;1859179;76;21671;-73
2023/06/09 09:14:36;;;;;;;17.75;7.45;;;30.30;99.90;;;;;;1856549;76;21452;-76
2023/06/09 09:17:13;;;;;;;19.55;7.97;;;30.20;99.90;;;;;;1852203;76;21785;-75
2023/06/09 09:19:52;;;;;;;33.48;10.98;;;30.10;99.90;;;;;;1847811;76;21622;-74
2023/06/09 09:22:20;;;;;;;20.30;9.45;;;30.00;99.90;;;;;;1832202;77;21146;-76
2023/06/09 09:24:51;;;;;;;15.53;9.75;;;29.90;99.90;;;;;;1827400;76;21115;-75
2023/06/09 09:27:23;;;;;;;11.88;8.85;;;29.80;99.90;;;;;;1839962;76;21239;-74
2023/06/09 09:29:54;;;;;;;15.40;9.28;;;29.70;99.90;;;;;;1838614;76;21134;-74
2023/06/09 09:32:29;;;;;;;32.42;9.65;;;29.50;99.90;;;;;;1806939;78;21610;-73
2023/06/09 09:35:02;;;;;;;16.75;9.68;;;29.30;99.90;;;;;;1816585;77;21688;-75
2023/06/09 09:37:36;;;;;;;13.05;10.23;;;29.20;99.90;;;;;;1832087;77;21197;-74
2023/06/09 09:40:10;;;;;;;30.12;12.15;;;29.10;99.90;;;;;;1845392;76;21754;-75
2023/06/09 09:42:45;;;;;;;17.23;10.00;;;29.10;99.90;;;;;;1846860;76;22095;-76
2023/06/09 09:45:16;;;;;;;33.88;11.53;;;29.10;99.90;;;;;;1823121;78;21194;-75
2023/06/09 09:47:48;;;;;;;25.55;10.72;;;29.10;99.90;;;;;;1817754;78;21256;-74
2023/06/09 09:50:31;;;;;;;16.93;10.03;;;29.10;99.90;;;;;;1806371;78;21249;-72
2023/06/09 09:53:04;;;;;;;12.88;8.35;;;29.10;99.90;;;;;;1847984;76;21707;-72
2023/06/09 09:55:40;;;;;;;16.17;10.35;;;29.10;99.90;;;;;;1848259;76;21190;-72
2023/06/09 09:58:11;;;;;;;;;;;29.10;99.90;;;;;;1843613;77;21503;-72
2023/06/09 10:00:46;;;;;;;17.87;11.85;;;29.20;99.90;;;;;;1840355;76;20542;-73
2023/06/09 10:03:21;;;;;;;15.10;8.97;;;29.20;99.90;;;;;;1842354;76;21204;-73
2023/06/09 10:05:55;;;;;;;12.28;8.58;;;29.30;99.90;;;;;;1837550;76;21201;-74
2023/06/09 10:08:31;;;;;;;11.80;8.40;;;29.40;99.90;;;;;;1838345;76;21204;-72
2023/06/09 10:11:03;;;;;;;16.10;9.68;;;29.50;99.90;;;;;;1807929;78;21224;-73
2023/06/09 10:13:36;;;;;;;12.35;8.10;;;29.60;99.90;;;;;;1811948;78;21218;-73
2023/06/09 10:16:10;;;;;;;22.25;9.08;;;29.60;99.90;;;;;;1841630;76;21155;-73
2023/06/09 10:18:42;;;;;;;17.50;9.40;;;29.70;99.90;;;;;;1837946;76;21262;-72
2023/06/09 10:24:07;;;;;;;19.25;9.18;;;29.70;99.90;;;;;;1841245;77;21151;-73
2023/06/09 10:26:39;;;;;;;18.75;9.53;;;29.60;99.90;;;;;;1860916;76;21411;-73
2023/06/09 10:29:11;;;;;;;21.55;9.85;;;29.60;99.90;;;;;;1883530;73;21229;-73
2023/06/09 10:31:45;;;;;;;17.67;9.65;;;29.50;99.90;;;;;;1888620;74;21224;-74
2023/06/09 10:34:17;;;;;;;11.83;7.95;;;29.50;99.90;;;;;;1820767;76;21572;-73
2023/06/09 10:36:55;;;;;;;15.38;8.83;;;29.50;99.90;;;;;;1848269;76;21252;-73
2023/06/09 10:39:31;;;;;;;14.40;8.40;;;29.50;99.90;;;;;;1891685;74;21185;-72
2023/06/09 10:42:36;;;;;;;16.60;12.05;;;29.50;99.90;;;;;;1876890;74;21139;-72
2023/06/09 10:45:15;;;;;;;19.90;10.53;;;29.50;99.90;;;;;;1770897;80;21289;-74
2023/06/09 10:47:49;;;;;;;14.15;8.75;;;29.50;99.90;;;;;;1836700;76;21162;-74
2023/06/09 10:50:30;;;;;;;15.25;8.68;;;29.60;99.90;;;;;;1840716;76;21569;-74
2023/06/09 10:53:05;;;;;;;16.82;9.40;;;29.50;99.90;;;;;;1873539;74;21201;-73
2023/06/09 10:55:41;;;;;;;14.83;9.30;;;29.60;99.90;;;;;;1900403;74;21985;-74
2023/06/09 10:58:38;;;;;;;22.48;9.60;;;29.60;99.90;;;;;;1900184;74;21212;-73
2023/06/09 11:01:09;;;;;;;13.28;8.83;;;29.60;99.90;;;;;;1714744;81;21240;-74
2023/06/09 11:03:41;;;;;;;26.70;9.58;;;29.60;99.90;;;;;;1864212;74;21924;-75
2023/06/09 11:06:12;;;;;;;25.68;9.53;;;29.60;99.90;;;;;;1894849;74;21248;-74
2023/06/09 11:09:02;;;;;;;14.68;9.23;;;29.60;99.90;;;;;;1856533;76;21649;-73
2023/06/09 11:11:51;;;;;;;11.95;8.20;;;29.60;99.90;;;;;;1853480;76;21150;-75
2023/06/09 11:14:56;;;;;;;14.55;8.70;;;29.60;99.90;;;;;;1905664;74;21222;-74
2023/06/09 11:17:33;;;;;;;14.33;9.05;;;29.60;99.90;;;;;;1870738;75;21536;-73
2023/06/09 11:20:11;;;;;;;13.35;9.13;;;29.60;99.90;;;;;;1893056;74;21134;-74
2023/06/09 11:22:48;;;;;;;14.50;9.83;;;29.60;99.90;;;;;;1848540;76;21153;-74
2023/06/09 11:25:23;;;;;;;23.87;11.15;;;29.60;99.90;;;;;;1861187;76;21162;-74
2023/06/09 11:28:00;;;;;;;29.65;11.73;;;29.50;99.90;;;;;;1903939;74;21117;-74
2023/06/09 11:30:33;;;;;;;23.38;10.70;;;29.50;99.90;;;;;;1887188;74;21116;-74
2023/06/09 11:33:08;;;;;;;17.25;9.95;;;29.50;99.90;;;;;;1901904;74;21103;-73
2023/06/09 11:35:44;;;;;;;19.00;9.45;;;29.40;99.90;;;;;;1884853;74;21117;-74
2023/06/09 11:38:23;;;;;;;17.45;10.25;;;29.30;99.90;;;;;;1874006;75;21134;-74
2023/06/09 11:40:55;;;;;;;18.87;10.40;;;29.30;99.90;;;;;;1892061;74;21277;-74
2023/06/09 11:43:27;;;;;;;17.42;9.45;;;29.30;99.90;;;;;;1843440;76;21388;-75
2023/06/09 11:46:04;;;;;;;15.15;9.90;;;29.30;99.90;;;;;;1880729;74;21908;-73
2023/06/09 11:48:36;;;;;;;22.25;10.63;;;29.20;99.90;;;;;;1858535;76;21186;-74
2023/06/09 11:51:07;;;;;;;21.52;11.25;;;29.20;99.90;;;;;;1888507;74;21118;-74
2023/06/09 11:53:39;;;;;;;15.18;9.88;;;29.20;99.90;;;;;;1881853;74;21820;-73
2023/06/09 11:56:10;;;;;;;16.15;10.10;;;29.20;99.90;;;;;;1896344;74;21360;-74
2023/06/09 11:58:42;;;;;;;17.27;9.78;;;29.20;99.90;;;;;;1882839;74;21130;-74
2023/06/09 12:01:15;;;;;;;15.35;9.68;;;29.20;99.90;;;;;;1885768;74;21421;-74
2023/06/09 12:03:46;;;;;;;33.33;11.55;;;29.20;99.90;;;;;;1883212;74;21176;-74
2023/06/09 12:06:20;;;;;;;12.23;9.63;;;29.20;99.90;;;;;;1907929;74;21780;-72
2023/06/09 12:08:52;;;;;;;18.00;10.65;;;29.20;99.90;;;;;;1871190;73;21158;-73
2023/06/09 12:11:23;;;;;;;13.48;10.18;;;29.20;99.90;;;;;;1887905;74;21100;-75
2023/06/09 12:13:59;;;;;;;31.93;11.43;;;29.20;99.90;;;;;;1866157;75;21134;-74
2023/06/09 12:16:31;;;;;;;17.60;9.88;;;29.10;99.90;;;;;;1884645;75;21858;-73
2023/06/09 12:19:05;;;;;;;13.05;9.20;;;29.10;99.90;;;;;;1870726;75;21169;-75
2023/06/09 12:21:37;;;;;;;17.02;9.95;;;29.10;99.90;;;;;;1842938;76;21216;-72
2023/06/09 12:27:14;;;;;;;17.30;11.50;;;29.10;99.90;;;;;;1832030;76;21146;-72
2023/06/09 12:29:50;;;;;;;18.90;10.63;;;29.10;99.90;;;;;;1891398;74;21561;-73
2023/06/09 12:32:30;;;;;;;13.22;10.43;;;29.10;99.90;;;;;;1901585;74;21138;-73
2023/06/09 12:35:03;;;;;;;17.15;10.90;;;29.10;99.90;;;;;;1885164;74;21767;-72
2023/06/09 12:37:39;;;;;;;13.58;11.00;;;29.10;99.90;;;;;;1908231;74;21173;-72
2023/06/09 12:40:11;;;;;;;21.02;11.18;;;29.10;99.90;;;;;;1904669;74;21271;-72
2023/06/09 12:42:49;;;;;;;17.95;10.43;;;29.10;99.90;;;;;;1892202;74;21168;-73
2023/06/09 12:45:27;;;;;;;21.00;11.10;;;29.10;99.90;;;;;;1888054;74;21867;-73
2023/06/09 12:47:58;;;;;;;20.20;12.47;;;29.10;99.90;;;;;;1882331;74;21665;-73
2023/06/09 12:50:30;;;;;;;16.10;12.55;;;29.10;99.90;;;;;;1876083;75;21130;-73
2023/06/09 12:53:02;;;;;;;17.10;11.65;;;29.10;99.90;;;;;;1816073;78;21872;-73
2023/06/09 12:55:35;;;;;;;13.43;10.75;;;29.20;99.90;;;;;;1907074;74;21622;-74
2023/06/09 12:58:08;;;;;;;16.35;10.72;;;29.20;99.90;;;;;;1882096;74;21163;-73
2023/06/09 13:00:40;;;;;;;17.23;10.48;;;29.20;99.90;;;;;;1889741;74;21164;-73
2023/06/09 13:03:12;;;;;;;17.87;11.43;;;29.20;99.90;;;;;;1874023;74;21239;-71
2023/06/09 13:05:44;;;;;;;20.15;11.68;;;29.20;99.90;;;;;;1885407;75;21177;-73
2023/06/09 13:08:15;;;;;;;13.25;10.58;;;29.10;99.90;;;;;;1906833;74;21365;-73
2023/06/09 13:10:48;;;;;;;16.60;11.03;;;29.20;99.90;;;;;;1894950;74;21123;-73